createdAt,value
2017-06-19T00:00:08.684Z,20.88
2017-06-19T00:00:36.708Z,20.9
2017-06-19T00:01:04.854Z,20.83
2017-06-19T00:01:32.887Z,20.78
2017-06-19T00:02:01.035Z,20.86
2017-06-19T00:02:29.076Z,20.8
2017-06-19T00:02:57.407Z,20.78
2017-06-19T00:03:25.531Z,20.75
2017-06-19T00:03:53.581Z,20.74
2017-06-19T00:04:21.643Z,20.77
2017-06-19T00:04:49.692Z,20.77
2017-06-19T00:05:17.725Z,20.82
2017-06-19T00:05:45.871Z,20.74
2017-06-19T00:06:14.050Z,20.71
2017-06-19T00:06:42.191Z,20.8
2017-06-19T00:07:10.209Z,20.68
2017-06-19T00:07:38.171Z,20.75
2017-06-19T00:08:06.308Z,20.74
2017-06-19T00:08:34.344Z,20.71
2017-06-19T00:09:02.402Z,20.59
2017-06-19T00:09:30.546Z,20.6
2017-06-19T00:09:58.575Z,20.63
2017-06-19T00:10:26.639Z,20.6
2017-06-19T00:10:54.609Z,20.63
2017-06-19T00:11:22.719Z,20.59
2017-06-19T00:11:50.767Z,20.58
2017-06-19T00:12:18.903Z,20.56
2017-06-19T00:12:46.975Z,20.59
2017-06-19T00:13:14.917Z,20.67
2017-06-19T00:13:43.061Z,20.63
2017-06-19T00:14:11.104Z,20.55
2017-06-19T00:14:39.254Z,20.59
2017-06-19T00:15:07.403Z,20.58
2017-06-19T00:15:35.547Z,20.56
2017-06-19T00:16:03.682Z,20.5
2017-06-19T00:16:31.733Z,20.55
2017-06-19T00:16:59.787Z,20.5
2017-06-19T00:17:27.927Z,20.53
2017-06-19T00:17:56.088Z,20.52
2017-06-19T00:18:24.228Z,20.5
2017-06-19T00:18:52.385Z,20.53
2017-06-19T00:19:20.532Z,20.52
2017-06-19T00:19:48.578Z,20.48
2017-06-19T00:20:16.604Z,20.46
2017-06-19T00:20:44.645Z,20.42
2017-06-19T00:21:12.784Z,20.39
2017-06-19T00:21:40.938Z,20.44
2017-06-19T00:22:09.085Z,20.44
2017-06-19T00:22:37.226Z,20.44
2017-06-19T00:23:05.283Z,20.4
2017-06-19T00:23:33.327Z,20.42
2017-06-19T00:24:01.357Z,20.37
2017-06-19T00:24:29.333Z,20.44
2017-06-19T00:24:57.395Z,20.39
2017-06-19T00:25:25.440Z,20.46
2017-06-19T00:25:53.391Z,20.37
2017-06-19T00:26:21.540Z,20.39
2017-06-19T00:26:49.593Z,20.42
2017-06-19T00:27:17.763Z,20.42
2017-06-19T00:27:45.839Z,20.32
2017-06-19T00:28:13.982Z,20.3
2017-06-19T00:28:42.098Z,20.34
2017-06-19T00:29:10.245Z,20.39
2017-06-19T00:29:38.286Z,20.33
2017-06-19T00:30:06.430Z,20.36
2017-06-19T00:30:34.713Z,20.3
2017-06-19T00:31:02.842Z,20.3
2017-06-19T00:31:30.978Z,20.36
2017-06-19T00:31:59.123Z,20.3
2017-06-19T00:32:27.084Z,20.17
2017-06-19T00:32:55.252Z,20.27
2017-06-19T00:33:23.430Z,20.22
2017-06-19T00:33:51.390Z,20.29
2017-06-19T00:34:19.518Z,20.21
2017-06-19T00:34:47.639Z,20.24
2017-06-19T00:35:15.754Z,20.24
2017-06-19T00:35:43.902Z,20.22
2017-06-19T00:36:11.872Z,20.27
2017-06-19T00:36:40.029Z,20.15
2017-06-19T00:37:08.196Z,20.22
2017-06-19T00:37:36.339Z,20.11
2017-06-19T00:38:04.510Z,20.14
2017-06-19T00:38:32.668Z,20.15
2017-06-19T00:39:00.799Z,20.12
2017-06-19T00:39:28.961Z,20.12
2017-06-19T00:39:57.107Z,20.1
2017-06-19T00:40:25.247Z,20.15
2017-06-19T00:40:53.397Z,20.08
2017-06-19T00:41:21.521Z,20
2017-06-19T00:41:49.660Z,20.1
2017-06-19T00:42:17.727Z,20.03
2017-06-19T00:42:45.895Z,20.08
2017-06-19T00:43:13.978Z,19.93
2017-06-19T00:43:42.055Z,19.94
2017-06-19T00:44:10.025Z,19.97
2017-06-19T00:44:38.175Z,19.94
2017-06-19T00:45:06.350Z,19.87
2017-06-19T00:45:34.513Z,19.87
2017-06-19T00:46:02.638Z,19.85
2017-06-19T00:46:30.692Z,19.84
2017-06-19T00:46:58.809Z,19.89
2017-06-19T00:47:26.867Z,19.87
2017-06-19T00:47:55.023Z,19.89
2017-06-19T00:48:23.149Z,19.82
2017-06-19T00:48:51.297Z,19.84
2017-06-19T00:49:19.228Z,19.82
2017-06-19T00:49:47.376Z,19.84
2017-06-19T00:50:15.349Z,19.82
2017-06-19T00:50:43.482Z,19.84
2017-06-19T00:51:11.619Z,19.75
2017-06-19T00:51:39.668Z,19.66
2017-06-19T00:52:07.840Z,19.74
2017-06-19T00:52:35.996Z,19.64
2017-06-19T00:53:03.971Z,19.74
2017-06-19T00:53:32.130Z,19.64
2017-06-19T00:54:00.185Z,19.62
2017-06-19T00:54:28.259Z,19.63
2017-06-19T00:54:56.390Z,19.63
2017-06-19T00:55:24.504Z,19.59
2017-06-19T00:55:52.564Z,19.56
2017-06-19T00:56:20.694Z,19.59
2017-06-19T00:56:48.756Z,19.53
2017-06-19T00:57:16.922Z,19.45
2017-06-19T00:57:45.060Z,19.45
2017-06-19T00:58:13.093Z,19.47
2017-06-19T00:58:41.234Z,19.41
2017-06-19T00:59:09.361Z,19.42
2017-06-19T00:59:37.495Z,19.39
2017-06-19T01:00:05.617Z,19.34
2017-06-19T01:00:33.738Z,19.39
2017-06-19T01:01:01.880Z,19.35
2017-06-19T01:01:30.036Z,19.27
2017-06-19T01:01:58.369Z,19.38
2017-06-19T01:02:26.526Z,19.32
2017-06-19T01:02:54.673Z,19.24
2017-06-19T01:03:22.816Z,19.26
2017-06-19T01:03:50.961Z,19.23
2017-06-19T01:04:19.025Z,19.17
2017-06-19T01:04:47.218Z,19.2
2017-06-19T01:05:15.159Z,19.2
2017-06-19T01:05:43.288Z,19.16
2017-06-19T01:06:11.326Z,19.08
2017-06-19T01:06:39.371Z,19.11
2017-06-19T01:07:07.513Z,19.04
2017-06-19T01:07:35.656Z,19.05
2017-06-19T01:08:03.776Z,18.98
2017-06-19T01:08:31.925Z,19
2017-06-19T01:09:00.046Z,18.86
2017-06-19T01:09:28.106Z,18.86
2017-06-19T01:09:56.244Z,18.83
2017-06-19T01:10:24.386Z,18.82
2017-06-19T01:10:52.546Z,18.88
2017-06-19T01:11:20.856Z,18.83
2017-06-19T01:11:49.447Z,18.86
2017-06-19T01:12:17.968Z,18.89
2017-06-19T01:12:46.606Z,18.85
2017-06-19T01:13:15.230Z,18.82
2017-06-19T01:13:43.821Z,18.83
2017-06-19T01:14:12.442Z,18.78
2017-06-19T01:14:41.051Z,18.73
2017-06-19T01:15:09.663Z,18.85
2017-06-19T01:15:38.287Z,18.73
2017-06-19T01:16:06.897Z,18.82
2017-06-19T01:16:35.499Z,18.71
2017-06-19T01:17:04.121Z,18.74
2017-06-19T01:17:32.741Z,18.74
2017-06-19T01:18:01.357Z,18.78
2017-06-19T01:18:29.944Z,18.7
2017-06-19T01:18:58.547Z,18.74
2017-06-19T01:19:27.163Z,18.74
2017-06-19T01:19:55.799Z,18.78
2017-06-19T01:20:24.455Z,18.67
2017-06-19T01:20:52.971Z,18.63
2017-06-19T01:21:21.587Z,18.6
2017-06-19T01:21:50.181Z,18.6
2017-06-19T01:22:18.796Z,18.57
2017-06-19T01:22:47.318Z,18.49
2017-06-19T01:23:15.841Z,18.53
2017-06-19T01:23:44.334Z,18.49
2017-06-19T01:24:12.946Z,18.43
2017-06-19T01:24:41.592Z,18.41
2017-06-19T01:25:10.217Z,18.37
2017-06-19T01:25:38.807Z,18.42
2017-06-19T01:26:07.396Z,18.34
2017-06-19T01:26:35.923Z,18.42
2017-06-19T01:27:04.451Z,18.36
2017-06-19T01:27:32.851Z,18.33
2017-06-19T01:28:01.389Z,18.36
2017-06-19T01:28:29.988Z,18.36
2017-06-19T01:28:58.637Z,18.19
2017-06-19T01:29:27.147Z,18.26
2017-06-19T01:29:55.662Z,18.19
2017-06-19T01:30:24.175Z,18.15
2017-06-19T01:30:52.692Z,18.21
2017-06-19T01:31:21.321Z,18.18
2017-06-19T01:31:49.933Z,18.21
2017-06-19T01:32:18.456Z,18.26
2017-06-19T01:32:47.071Z,18.26
2017-06-19T01:33:15.600Z,18.19
2017-06-19T01:33:44.241Z,18.13
2017-06-19T01:34:12.809Z,18.16
2017-06-19T01:34:41.315Z,18.15
2017-06-19T01:35:09.909Z,18.09
2017-06-19T01:35:38.563Z,18.15
2017-06-19T01:36:07.165Z,18.05
2017-06-19T01:36:35.694Z,18.21
2017-06-19T01:37:04.312Z,18.05
2017-06-19T01:37:33.079Z,18.19
2017-06-19T01:38:01.681Z,18.16
2017-06-19T01:38:30.188Z,18.11
2017-06-19T01:38:58.688Z,18.12
2017-06-19T01:39:27.327Z,18.08
2017-06-19T01:39:55.957Z,18.12
2017-06-19T01:40:24.554Z,18.11
2017-06-19T01:40:53.189Z,18.12
2017-06-19T01:41:21.702Z,18.13
2017-06-19T01:41:50.302Z,18.12
2017-06-19T01:42:18.911Z,18.08
2017-06-19T01:42:47.511Z,18.13
2017-06-19T01:43:16.131Z,18.09
2017-06-19T01:43:44.774Z,18.15
2017-06-19T01:44:13.288Z,18.08
2017-06-19T01:44:41.900Z,18.12
2017-06-19T01:45:10.404Z,18.12
2017-06-19T01:45:39.037Z,18.11
2017-06-19T01:46:07.638Z,18.12
2017-06-19T01:46:36.239Z,18.09
2017-06-19T01:47:04.862Z,18.06
2017-06-19T01:47:33.278Z,18.02
2017-06-19T01:48:01.892Z,18
2017-06-19T01:48:30.508Z,17.97
2017-06-19T01:48:59.131Z,17.94
2017-06-19T01:49:27.563Z,17.93
2017-06-19T01:49:56.192Z,17.98
2017-06-19T01:50:24.823Z,17.97
2017-06-19T01:50:53.462Z,17.93
2017-06-19T01:51:22.078Z,17.93
2017-06-19T01:51:50.682Z,17.9
2017-06-19T01:52:19.305Z,17.9
2017-06-19T01:52:47.938Z,17.86
2017-06-19T01:53:16.270Z,17.9
2017-06-19T01:53:44.890Z,17.91
2017-06-19T01:54:13.513Z,17.91
2017-06-19T01:54:42.128Z,17.91
2017-06-19T01:55:10.729Z,17.93
2017-06-19T01:55:39.259Z,17.86
2017-06-19T01:56:07.772Z,17.84
2017-06-19T01:56:36.303Z,17.84
2017-06-19T01:57:04.910Z,17.8
2017-06-19T01:57:33.467Z,17.72
2017-06-19T01:58:01.969Z,17.69
2017-06-19T01:58:30.581Z,17.76
2017-06-19T01:58:59.202Z,17.69
2017-06-19T01:59:27.749Z,17.72
2017-06-19T01:59:56.351Z,17.73
2017-06-19T02:00:24.881Z,17.68
2017-06-19T02:00:53.493Z,17.6
2017-06-19T02:01:21.908Z,17.57
2017-06-19T02:01:50.503Z,17.65
2017-06-19T02:02:19.015Z,17.59
2017-06-19T02:02:47.611Z,17.52
2017-06-19T02:03:16.150Z,17.59
2017-06-19T02:03:44.761Z,17.65
2017-06-19T02:04:13.388Z,17.66
2017-06-19T02:04:41.990Z,17.65
2017-06-19T02:05:10.613Z,17.53
2017-06-19T02:05:39.225Z,17.54
2017-06-19T02:06:07.871Z,17.42
2017-06-19T02:06:36.491Z,17.47
2017-06-19T02:07:05.032Z,17.44
2017-06-19T02:07:33.641Z,17.5
2017-06-19T02:08:02.250Z,17.46
2017-06-19T02:08:30.753Z,17.39
2017-06-19T02:08:59.368Z,17.39
2017-06-19T02:09:27.871Z,17.34
2017-06-19T02:09:56.489Z,17.38
2017-06-19T02:10:25.099Z,17.35
2017-06-19T02:10:53.676Z,17.39
2017-06-19T02:11:22.274Z,17.37
2017-06-19T02:11:50.804Z,17.38
2017-06-19T02:12:19.310Z,17.38
2017-06-19T02:12:47.932Z,17.38
2017-06-19T02:13:16.541Z,17.37
2017-06-19T02:13:45.142Z,17.34
2017-06-19T02:14:13.758Z,17.35
2017-06-19T02:14:42.358Z,17.39
2017-06-19T02:15:10.880Z,17.34
2017-06-19T02:15:39.408Z,17.28
2017-06-19T02:16:08.018Z,17.22
2017-06-19T02:16:36.530Z,17.23
2017-06-19T02:17:05.148Z,17.22
2017-06-19T02:17:34.061Z,17.14
2017-06-19T02:18:02.689Z,17.14
2017-06-19T02:18:31.199Z,17.14
2017-06-19T02:18:59.783Z,17.13
2017-06-19T02:19:28.408Z,17.13
2017-06-19T02:19:57.024Z,17.16
2017-06-19T02:20:25.668Z,17.16
2017-06-19T02:20:54.141Z,17.13
2017-06-19T02:21:22.761Z,17.14
2017-06-19T02:21:51.363Z,17.12
2017-06-19T02:22:19.862Z,17.2
2017-06-19T02:22:48.309Z,17.14
2017-06-19T02:23:16.904Z,17.14
2017-06-19T02:23:45.343Z,17.19
2017-06-19T02:24:13.947Z,17.16
2017-06-19T02:24:42.469Z,17.16
2017-06-19T02:25:11.069Z,17.13
2017-06-19T02:25:39.633Z,17.13
2017-06-19T02:26:08.229Z,17.12
2017-06-19T02:26:36.852Z,17.13
2017-06-19T02:27:05.460Z,17.13
2017-06-19T02:27:34.046Z,17.04
2017-06-19T02:28:02.654Z,17.04
2017-06-19T02:28:31.276Z,17.01
2017-06-19T02:28:59.909Z,17.01
2017-06-19T02:29:28.431Z,17.09
2017-06-19T02:29:56.962Z,17.02
2017-06-19T02:30:25.560Z,17.01
2017-06-19T02:30:54.097Z,17.05
2017-06-19T02:31:22.724Z,16.99
2017-06-19T02:31:51.134Z,17.02
2017-06-19T02:32:19.762Z,16.97
2017-06-19T02:32:48.293Z,16.94
2017-06-19T02:33:16.916Z,16.91
2017-06-19T02:33:45.542Z,16.86
2017-06-19T02:34:14.148Z,16.89
2017-06-19T02:34:42.659Z,16.84
2017-06-19T02:35:11.176Z,16.86
2017-06-19T02:35:39.705Z,16.83
2017-06-19T02:36:08.376Z,16.87
2017-06-19T02:36:37.003Z,16.86
2017-06-19T02:37:05.613Z,16.8
2017-06-19T02:37:34.206Z,16.74
2017-06-19T02:38:02.829Z,16.79
2017-06-19T02:38:31.344Z,16.74
2017-06-19T02:38:59.972Z,16.73
2017-06-19T02:39:28.508Z,16.83
2017-06-19T02:39:57.152Z,16.73
2017-06-19T02:40:25.582Z,16.76
2017-06-19T02:40:54.124Z,16.82
2017-06-19T02:41:22.670Z,16.82
2017-06-19T02:41:51.100Z,16.79
2017-06-19T02:42:19.707Z,16.74
2017-06-19T02:42:48.214Z,16.8
2017-06-19T02:43:16.766Z,16.74
2017-06-19T02:43:45.284Z,16.74
2017-06-19T02:44:13.891Z,16.72
2017-06-19T02:44:42.478Z,16.77
2017-06-19T02:45:11.101Z,16.86
2017-06-19T02:45:39.688Z,16.73
2017-06-19T02:46:08.326Z,16.69
2017-06-19T02:46:36.915Z,16.77
2017-06-19T02:47:05.525Z,16.82
2017-06-19T02:47:34.127Z,16.79
2017-06-19T02:48:02.770Z,16.74
2017-06-19T02:48:31.294Z,16.79
2017-06-19T02:48:59.749Z,16.76
2017-06-19T02:49:28.268Z,16.74
2017-06-19T02:49:56.873Z,16.76
2017-06-19T02:50:25.275Z,16.77
2017-06-19T02:50:53.891Z,16.72
2017-06-19T02:51:22.522Z,16.72
2017-06-19T02:51:51.052Z,16.73
2017-06-19T02:52:19.667Z,16.62
2017-06-19T02:52:48.312Z,16.59
2017-06-19T02:53:16.898Z,16.58
2017-06-19T02:53:45.442Z,16.65
2017-06-19T02:54:14.058Z,16.55
2017-06-19T02:54:42.663Z,16.58
2017-06-19T02:55:11.205Z,16.57
2017-06-19T02:55:39.735Z,16.5
2017-06-19T02:56:08.255Z,16.64
2017-06-19T02:56:36.872Z,16.51
2017-06-19T02:57:05.409Z,16.59
2017-06-19T02:57:34.372Z,16.62
2017-06-19T02:58:02.954Z,16.59
2017-06-19T02:58:31.472Z,16.58
2017-06-19T02:59:00.097Z,16.58
2017-06-19T02:59:47.880Z,16.5
2017-06-19T03:00:16.045Z,16.57
2017-06-19T03:00:44.418Z,16.46
2017-06-19T03:01:12.789Z,16.57
2017-06-19T03:01:41.035Z,16.54
2017-06-19T03:02:09.084Z,16.51
2017-06-19T03:02:37.214Z,16.55
2017-06-19T03:03:05.362Z,16.59
2017-06-19T03:03:33.315Z,16.59
2017-06-19T03:04:01.354Z,16.61
2017-06-19T03:04:29.430Z,16.61
2017-06-19T03:04:57.568Z,16.61
2017-06-19T03:05:25.612Z,16.59
2017-06-19T03:05:53.644Z,16.61
2017-06-19T03:06:21.666Z,16.61
2017-06-19T03:06:49.710Z,16.61
2017-06-19T03:07:17.849Z,16.64
2017-06-19T03:07:45.925Z,16.61
2017-06-19T03:08:14.073Z,16.58
2017-06-19T03:08:42.121Z,16.58
2017-06-19T03:09:10.165Z,16.61
2017-06-19T03:09:38.316Z,16.61
2017-06-19T03:10:06.354Z,16.49
2017-06-19T03:10:34.494Z,16.58
2017-06-19T03:11:02.639Z,16.57
2017-06-19T03:11:30.768Z,16.5
2017-06-19T03:11:58.914Z,16.54
2017-06-19T03:12:27.142Z,16.57
2017-06-19T03:12:55.282Z,16.51
2017-06-19T03:13:23.350Z,16.59
2017-06-19T03:13:51.487Z,16.49
2017-06-19T03:14:19.544Z,16.5
2017-06-19T03:14:47.670Z,16.5
2017-06-19T03:15:15.821Z,16.62
2017-06-19T03:15:43.980Z,16.59
2017-06-19T03:16:12.126Z,16.59
2017-06-19T03:16:40.259Z,16.61
2017-06-19T03:17:08.380Z,16.61
2017-06-19T03:17:36.522Z,16.68
2017-06-19T03:18:04.665Z,16.68
2017-06-19T03:18:32.725Z,16.68
2017-06-19T03:19:00.837Z,16.64
2017-06-19T03:19:28.956Z,16.65
2017-06-19T03:19:57.116Z,16.72
2017-06-19T03:20:24.967Z,16.64
2017-06-19T03:20:53.022Z,16.66
2017-06-19T03:21:21.158Z,16.65
2017-06-19T03:21:49.186Z,16.65
2017-06-19T03:22:17.260Z,16.58
2017-06-19T03:22:45.306Z,16.65
2017-06-19T03:23:13.438Z,16.65
2017-06-19T03:23:41.598Z,16.65
2017-06-19T03:24:09.742Z,16.69
2017-06-19T03:24:37.771Z,16.57
2017-06-19T03:25:05.815Z,16.61
2017-06-19T03:25:33.846Z,16.68
2017-06-19T03:26:01.876Z,16.68
2017-06-19T03:26:29.907Z,16.69
2017-06-19T03:26:58.061Z,16.69
2017-06-19T03:27:26.189Z,16.66
2017-06-19T03:27:54.313Z,16.73
2017-06-19T03:28:22.273Z,16.74
2017-06-19T03:28:50.399Z,16.73
2017-06-19T03:29:18.519Z,16.76
2017-06-19T03:29:46.677Z,16.8
2017-06-19T03:30:14.709Z,16.72
2017-06-19T03:30:42.744Z,16.69
2017-06-19T03:31:10.884Z,16.74
2017-06-19T03:31:39.022Z,16.77
2017-06-19T03:32:07.061Z,16.65
2017-06-19T03:32:35.081Z,16.68
2017-06-19T03:33:03.155Z,16.66
2017-06-19T03:33:31.273Z,16.61
2017-06-19T03:33:59.394Z,16.59
2017-06-19T03:34:27.537Z,16.55
2017-06-19T03:34:55.679Z,16.59
2017-06-19T03:35:23.816Z,16.58
2017-06-19T03:35:51.887Z,16.61
2017-06-19T03:36:20.007Z,16.57
2017-06-19T03:36:48.145Z,16.54
2017-06-19T03:37:16.303Z,16.58
2017-06-19T03:37:44.439Z,16.54
2017-06-19T03:38:12.588Z,16.62
2017-06-19T03:38:40.632Z,16.64
2017-06-19T03:39:08.702Z,16.62
2017-06-19T03:39:36.870Z,16.69
2017-06-19T03:40:04.907Z,16.62
2017-06-19T03:40:32.846Z,16.66
2017-06-19T03:41:00.988Z,16.73
2017-06-19T03:41:29.258Z,16.62
2017-06-19T03:41:57.411Z,16.61
2017-06-19T03:42:25.518Z,16.64
2017-06-19T03:42:53.566Z,16.62
2017-06-19T03:43:21.618Z,16.61
2017-06-19T03:43:49.777Z,16.61
2017-06-19T03:44:17.828Z,16.61
2017-06-19T03:44:45.980Z,16.62
2017-06-19T03:45:14.096Z,16.66
2017-06-19T03:45:42.060Z,16.64
2017-06-19T03:46:10.200Z,16.74
2017-06-19T03:46:38.349Z,16.65
2017-06-19T03:47:06.429Z,16.65
2017-06-19T03:47:34.590Z,16.72
2017-06-19T03:48:02.697Z,16.72
2017-06-19T03:48:30.767Z,16.68
2017-06-19T03:48:58.712Z,16.64
2017-06-19T03:49:26.658Z,16.61
2017-06-19T03:49:54.770Z,16.62
2017-06-19T03:50:22.797Z,16.57
2017-06-19T03:50:50.948Z,16.59
2017-06-19T03:51:19.123Z,16.51
2017-06-19T03:51:47.246Z,16.57
2017-06-19T03:52:15.188Z,16.43
2017-06-19T03:52:43.337Z,16.43
2017-06-19T03:53:11.470Z,16.46
2017-06-19T03:53:39.601Z,16.4
2017-06-19T03:54:07.650Z,16.44
2017-06-19T03:54:35.703Z,16.44
2017-06-19T03:55:03.848Z,16.29
2017-06-19T03:55:31.989Z,16.29
2017-06-19T03:56:00.025Z,16.41
2017-06-19T03:56:28.155Z,16.29
2017-06-19T03:56:56.282Z,16.37
2017-06-19T03:57:24.346Z,16.39
2017-06-19T03:57:52.504Z,16.26
2017-06-19T03:58:20.646Z,16.29
2017-06-19T03:58:48.789Z,16.29
2017-06-19T03:59:16.931Z,16.28
2017-06-19T03:59:45.049Z,16.36
2017-06-19T04:00:13.186Z,16.32
2017-06-19T04:00:41.248Z,16.31
2017-06-19T04:01:09.381Z,16.32
2017-06-19T04:01:37.531Z,16.28
2017-06-19T04:02:05.750Z,16.34
2017-06-19T04:02:33.892Z,16.29
2017-06-19T04:03:01.926Z,16.31
2017-06-19T04:03:30.081Z,16.28
2017-06-19T04:03:58.147Z,16.29
2017-06-19T04:04:26.303Z,16.36
2017-06-19T04:04:54.425Z,16.44
2017-06-19T04:05:22.455Z,16.44
2017-06-19T04:05:50.605Z,16.43
2017-06-19T04:06:18.739Z,16.49
2017-06-19T04:06:46.877Z,16.46
2017-06-19T04:07:14.996Z,16.4
2017-06-19T04:07:43.013Z,16.43
2017-06-19T04:08:11.031Z,16.49
2017-06-19T04:08:39.095Z,16.54
2017-06-19T04:09:07.026Z,16.51
2017-06-19T04:09:35.047Z,16.5
2017-06-19T04:10:03.161Z,16.61
2017-06-19T04:10:31.226Z,16.58
2017-06-19T04:10:59.371Z,16.49
2017-06-19T04:11:27.524Z,16.43
2017-06-19T04:11:55.661Z,16.49
2017-06-19T04:12:23.820Z,16.51
2017-06-19T04:12:51.975Z,16.55
2017-06-19T04:13:20.137Z,16.49
2017-06-19T04:13:48.218Z,16.5
2017-06-19T04:14:16.275Z,16.59
2017-06-19T04:14:44.413Z,16.59
2017-06-19T04:15:12.567Z,16.55
2017-06-19T04:15:40.615Z,16.57
2017-06-19T04:16:08.747Z,16.68
2017-06-19T04:16:36.807Z,16.61
2017-06-19T04:17:04.953Z,16.62
2017-06-19T04:17:33.007Z,16.69
2017-06-19T04:18:01.178Z,16.64
2017-06-19T04:18:29.298Z,16.66
2017-06-19T04:18:57.233Z,16.66
2017-06-19T04:19:25.399Z,16.65
2017-06-19T04:19:53.550Z,16.76
2017-06-19T04:20:21.699Z,16.72
2017-06-19T04:20:49.865Z,16.77
2017-06-19T04:21:17.909Z,16.77
2017-06-19T04:21:46.075Z,16.77
2017-06-19T04:22:14.138Z,16.76
2017-06-19T04:22:42.299Z,16.79
2017-06-19T04:23:10.343Z,16.76
2017-06-19T04:23:38.394Z,16.76
2017-06-19T04:24:06.552Z,16.74
2017-06-19T04:24:34.714Z,16.77
2017-06-19T04:25:02.740Z,16.79
2017-06-19T04:25:30.671Z,16.8
2017-06-19T04:25:58.714Z,16.74
2017-06-19T04:26:26.850Z,16.77
2017-06-19T04:26:54.870Z,16.77
2017-06-19T04:27:23.019Z,16.82
2017-06-19T04:27:51.143Z,16.77
2017-06-19T04:28:19.269Z,16.69
2017-06-19T04:28:47.396Z,16.79
2017-06-19T04:29:15.536Z,16.77
2017-06-19T04:29:43.699Z,16.77
2017-06-19T04:30:11.851Z,16.77
2017-06-19T04:30:39.999Z,16.83
2017-06-19T04:31:08.116Z,16.77
2017-06-19T04:31:36.267Z,16.77
2017-06-19T04:32:04.416Z,16.8
2017-06-19T04:32:32.541Z,16.79
2017-06-19T04:33:00.509Z,16.84
2017-06-19T04:33:28.565Z,16.83
2017-06-19T04:33:56.696Z,16.86
2017-06-19T04:34:24.631Z,16.8
2017-06-19T04:34:52.766Z,16.83
2017-06-19T04:35:20.893Z,16.82
2017-06-19T04:35:49.032Z,16.86
2017-06-19T04:36:16.985Z,16.83
2017-06-19T04:36:45.152Z,16.91
2017-06-19T04:37:13.325Z,16.86
2017-06-19T04:37:41.461Z,16.86
2017-06-19T04:38:09.580Z,16.84
2017-06-19T04:38:37.711Z,16.84
2017-06-19T04:39:05.847Z,16.92
2017-06-19T04:39:33.989Z,16.89
2017-06-19T04:40:02.156Z,16.84
2017-06-19T04:40:30.282Z,16.94
2017-06-19T04:40:58.339Z,16.94
2017-06-19T04:41:26.486Z,17.02
2017-06-19T04:41:54.528Z,16.99
2017-06-19T04:42:22.579Z,17.01
2017-06-19T04:42:50.722Z,17.02
2017-06-19T04:43:18.868Z,17.09
2017-06-19T04:43:47.004Z,17.07
2017-06-19T04:44:15.131Z,17.01
2017-06-19T04:44:43.259Z,17.05
2017-06-19T04:45:11.228Z,17.13
2017-06-19T04:45:39.348Z,17.16
2017-06-19T04:46:07.476Z,17.14
2017-06-19T04:46:35.607Z,17.12
2017-06-19T04:47:03.750Z,17.2
2017-06-19T04:47:31.889Z,17.16
2017-06-19T04:47:59.921Z,17.2
2017-06-19T04:48:28.068Z,17.22
2017-06-19T04:48:56.216Z,17.2
2017-06-19T04:49:24.359Z,17.17
2017-06-19T04:49:52.495Z,17.17
2017-06-19T04:50:20.616Z,17.1
2017-06-19T04:50:48.748Z,17.2
2017-06-19T04:51:16.891Z,17.1
2017-06-19T04:51:45.021Z,17.14
2017-06-19T04:52:13.171Z,17.16
2017-06-19T04:52:41.314Z,17.19
2017-06-19T04:53:09.443Z,17.16
2017-06-19T04:53:37.574Z,17.17
2017-06-19T04:54:05.609Z,17.28
2017-06-19T04:54:33.756Z,17.2
2017-06-19T04:55:01.889Z,17.24
2017-06-19T04:55:29.903Z,17.24
2017-06-19T04:55:57.946Z,17.23
2017-06-19T04:56:26.120Z,17.28
2017-06-19T04:56:54.172Z,17.31
2017-06-19T04:57:22.193Z,17.31
2017-06-19T04:57:50.229Z,17.34
2017-06-19T04:58:18.390Z,17.34
2017-06-19T04:58:46.541Z,17.35
2017-06-19T04:59:14.567Z,17.44
2017-06-19T04:59:42.630Z,17.44
2017-06-19T05:00:10.583Z,17.42
2017-06-19T05:00:38.727Z,17.41
2017-06-19T05:01:06.848Z,17.49
2017-06-19T05:01:34.891Z,17.42
2017-06-19T05:02:03.036Z,17.6
2017-06-19T05:02:31.204Z,17.52
2017-06-19T05:02:59.335Z,17.63
2017-06-19T05:03:27.399Z,17.53
2017-06-19T05:03:55.547Z,17.59
2017-06-19T05:04:23.628Z,17.56
2017-06-19T05:04:51.785Z,17.57
2017-06-19T05:05:19.835Z,17.63
2017-06-19T05:05:47.981Z,17.57
2017-06-19T05:06:16.131Z,17.65
2017-06-19T05:06:44.188Z,17.71
2017-06-19T05:07:12.238Z,17.71
2017-06-19T05:07:40.356Z,17.59
2017-06-19T05:08:08.486Z,17.6
2017-06-19T05:08:36.592Z,17.6
2017-06-19T05:09:04.753Z,17.65
2017-06-19T05:09:32.806Z,17.65
2017-06-19T05:10:00.953Z,17.63
2017-06-19T05:10:29.082Z,17.6
2017-06-19T05:10:57.236Z,17.6
2017-06-19T05:11:25.289Z,17.6
2017-06-19T05:11:53.401Z,17.59
2017-06-19T05:12:21.547Z,17.5
2017-06-19T05:12:49.614Z,17.49
2017-06-19T05:13:17.781Z,17.42
2017-06-19T05:13:45.843Z,17.52
2017-06-19T05:14:14.001Z,17.38
2017-06-19T05:14:42.106Z,17.35
2017-06-19T05:15:10.120Z,17.38
2017-06-19T05:15:38.258Z,17.38
2017-06-19T05:16:06.296Z,17.38
2017-06-19T05:16:34.239Z,17.34
2017-06-19T05:17:02.363Z,17.35
2017-06-19T05:17:30.498Z,17.38
2017-06-19T05:17:58.620Z,17.35
2017-06-19T05:18:26.773Z,17.38
2017-06-19T05:18:54.714Z,17.46
2017-06-19T05:19:22.775Z,17.38
2017-06-19T05:19:50.930Z,17.49
2017-06-19T05:20:19.036Z,17.41
2017-06-19T05:20:46.994Z,17.46
2017-06-19T05:21:15.102Z,17.47
2017-06-19T05:21:43.227Z,17.47
2017-06-19T05:22:11.370Z,17.41
2017-06-19T05:22:39.525Z,17.39
2017-06-19T05:23:07.680Z,17.56
2017-06-19T05:23:35.824Z,17.5
2017-06-19T05:24:03.967Z,17.52
2017-06-19T05:24:32.033Z,17.42
2017-06-19T05:25:00.143Z,17.44
2017-06-19T05:25:28.259Z,17.42
2017-06-19T05:25:56.287Z,17.47
2017-06-19T05:26:24.434Z,17.39
2017-06-19T05:26:52.302Z,17.44
2017-06-19T05:27:20.365Z,17.53
2017-06-19T05:27:48.511Z,17.44
2017-06-19T05:28:16.578Z,17.42
2017-06-19T05:28:44.737Z,17.44
2017-06-19T05:29:12.896Z,17.42
2017-06-19T05:29:40.945Z,17.44
2017-06-19T05:30:09.098Z,17.41
2017-06-19T05:30:37.241Z,17.41
2017-06-19T05:31:05.299Z,17.39
2017-06-19T05:31:33.428Z,17.38
2017-06-19T05:32:01.571Z,17.39
2017-06-19T05:32:29.616Z,17.44
2017-06-19T05:32:57.738Z,17.41
2017-06-19T05:33:25.837Z,17.46
2017-06-19T05:33:53.996Z,17.39
2017-06-19T05:34:22.148Z,17.42
2017-06-19T05:34:50.197Z,17.49
2017-06-19T05:35:18.258Z,17.44
2017-06-19T05:35:46.404Z,17.44
2017-06-19T05:36:14.528Z,17.46
2017-06-19T05:36:42.656Z,17.47
2017-06-19T05:37:10.780Z,17.49
2017-06-19T05:37:38.930Z,17.46
2017-06-19T05:38:07.068Z,17.41
2017-06-19T05:38:35.013Z,17.49
2017-06-19T05:39:03.141Z,17.46
2017-06-19T05:39:31.294Z,17.46
2017-06-19T05:39:59.429Z,17.46
2017-06-19T05:40:27.583Z,17.47
2017-06-19T05:40:55.711Z,17.44
2017-06-19T05:41:23.870Z,17.47
2017-06-19T05:41:52.031Z,17.49
2017-06-19T05:42:19.969Z,17.47
2017-06-19T05:42:48.098Z,17.46
2017-06-19T05:43:16.216Z,17.53
2017-06-19T05:43:44.280Z,17.41
2017-06-19T05:44:12.340Z,17.54
2017-06-19T05:44:40.523Z,17.41
2017-06-19T05:45:08.642Z,17.59
2017-06-19T05:45:36.764Z,17.41
2017-06-19T05:46:04.899Z,17.49
2017-06-19T05:46:32.936Z,17.49
2017-06-19T05:47:00.976Z,17.42
2017-06-19T05:47:29.013Z,17.44
2017-06-19T05:47:57.151Z,17.37
2017-06-19T05:48:25.297Z,17.46
2017-06-19T05:48:53.433Z,17.42
2017-06-19T05:49:21.583Z,17.46
2017-06-19T05:49:49.743Z,17.46
2017-06-19T05:50:17.786Z,17.46
2017-06-19T05:50:45.842Z,17.37
2017-06-19T05:51:14.003Z,17.52
2017-06-19T05:51:42.145Z,17.44
2017-06-19T05:52:10.239Z,17.35
2017-06-19T05:52:38.345Z,17.32
2017-06-19T05:53:06.497Z,17.41
2017-06-19T05:53:34.626Z,17.37
2017-06-19T05:54:02.685Z,17.41
2017-06-19T05:54:30.842Z,17.37
2017-06-19T05:54:58.970Z,17.35
2017-06-19T05:55:27.031Z,17.38
2017-06-19T05:55:55.081Z,17.37
2017-06-19T05:56:23.189Z,17.39
2017-06-19T05:56:51.243Z,17.41
2017-06-19T05:57:19.385Z,17.38
2017-06-19T05:57:47.568Z,17.47
2017-06-19T05:58:15.620Z,17.39
2017-06-19T05:58:43.739Z,17.39
2017-06-19T05:59:11.798Z,17.38
2017-06-19T05:59:39.914Z,17.44
2017-06-19T06:00:07.970Z,17.38
2017-06-19T06:00:36.126Z,17.44
2017-06-19T06:01:04.257Z,17.49
2017-06-19T06:01:32.317Z,17.39
2017-06-19T06:02:00.495Z,17.34
2017-06-19T06:02:28.621Z,17.34
2017-06-19T06:02:56.760Z,17.35
2017-06-19T06:03:24.912Z,17.38
2017-06-19T06:03:53.061Z,17.37
2017-06-19T06:04:21.009Z,17.37
2017-06-19T06:04:49.059Z,17.38